sensor_id;sensor_type;location;lat;lon;timestamp;pressure;altitude;pressure_sealevel;temperature;humidity
62864;BME280;48954;59.950;11.014;2022-11-15T00:01:23;100208.77;;;3.40;88.86
62864;BME280;48954;59.950;11.014;2022-11-15T00:04:03;100202.55;;;3.33;88.71
62864;BME280;48954;59.950;11.014;2022-11-15T00:06:32;100198.42;;;3.29;88.91
62864;BME280;48954;59.950;11.014;2022-11-15T00:09:03;100193.92;;;3.28;88.67
62864;BME280;48954;59.950;11.014;2022-11-15T00:11:32;100188.27;;;3.28;88.87
62864;BME280;48954;59.950;11.014;2022-11-15T00:14:01;100183.54;;;3.28;88.84
62864;BME280;48954;59.950;11.014;2022-11-15T00:16:35;100179.31;;;3.27;89.13
62864;BME280;48954;59.950;11.014;2022-11-15T00:19:11;100178.82;;;3.27;88.84
62864;BME280;48954;59.950;11.014;2022-11-15T00:21:38;100176.48;;;3.27;88.93
62864;BME280;48954;59.950;11.014;2022-11-15T00:24:09;100169.40;;;3.28;89.23
62864;BME280;48954;59.950;11.014;2022-11-15T00:26:37;100169.91;;;3.30;89.02
62864;BME280;48954;59.950;11.014;2022-11-15T00:29:33;100171.97;;;3.31;89.06
62864;BME280;48954;59.950;11.014;2022-11-15T00:32:11;100179.30;;;3.34;89.19
62864;BME280;48954;59.950;11.014;2022-11-15T00:34:41;100179.30;;;3.34;89.11
62864;BME280;48954;59.950;11.014;2022-11-15T00:37:13;100178.23;;;3.34;88.94
62864;BME280;48954;59.950;11.014;2022-11-15T00:39:41;100173.90;;;3.32;88.92
62864;BME280;48954;59.950;11.014;2022-11-15T00:42:08;100171.95;;;3.32;88.79
62864;BME280;48954;59.950;11.014;2022-11-15T00:44:35;100167.61;;;3.31;88.78
62864;BME280;48954;59.950;11.014;2022-11-15T00:47:15;100158.67;;;3.26;88.48
62864;BME280;48954;59.950;11.014;2022-11-15T00:49:44;100158.07;;;3.30;88.91
62864;BME280;48954;59.950;11.014;2022-11-15T00:52:16;100155.11;;;3.31;88.57
62864;BME280;48954;59.950;11.014;2022-11-15T00:54:45;100151.56;;;3.28;88.83
62864;BME280;48954;59.950;11.014;2022-11-15T00:57:12;100149.36;;;3.27;88.78
62864;BME280;48954;59.950;11.014;2022-11-15T00:59:45;100155.69;;;3.26;88.64
62864;BME280;48954;59.950;11.014;2022-11-15T01:02:12;100162.13;;;3.21;88.52
62864;BME280;48954;59.950;11.014;2022-11-15T01:04:40;100169.14;;;3.16;88.52
62864;BME280;48954;59.950;11.014;2022-11-15T01:07:09;100182.35;;;3.15;88.88
62864;BME280;48954;59.950;11.014;2022-11-15T01:09:36;100186.71;;;3.14;88.94
62864;BME280;48954;59.950;11.014;2022-11-15T01:12:06;100197.33;;;3.14;88.70
62864;BME280;48954;59.950;11.014;2022-11-15T01:14:34;100198.91;;;3.13;88.97
62864;BME280;48954;59.950;11.014;2022-11-15T01:17:15;100192.48;;;3.12;88.76
62864;BME280;48954;59.950;11.014;2022-11-15T01:19:56;100188.23;;;3.10;88.79
62864;BME280;48954;59.950;11.014;2022-11-15T01:22:24;100185.15;;;3.09;88.82
62864;BME280;48954;59.950;11.014;2022-11-15T01:24:51;100179.41;;;3.07;89.03
62864;BME280;48954;59.950;11.014;2022-11-15T01:27:18;100175.90;;;3.06;89.00
62864;BME280;48954;59.950;11.014;2022-11-15T01:30:26;100182.77;;;3.01;88.69
62864;BME280;48954;59.950;11.014;2022-11-15T01:32:53;100180.88;;;2.96;88.77
62864;BME280;48954;59.950;11.014;2022-11-15T01:35:27;100180.39;;;2.91;88.77
62864;BME280;48954;59.950;11.014;2022-11-15T01:37:54;100182.63;;;2.87;88.75
62864;BME280;48954;59.950;11.014;2022-11-15T01:40:22;100177.08;;;2.82;89.03
62864;BME280;48954;59.950;11.014;2022-11-15T01:42:49;100182.69;;;2.81;88.77
62864;BME280;48954;59.950;11.014;2022-11-15T01:45:19;100180.25;;;2.77;88.86
62864;BME280;48954;59.950;11.014;2022-11-15T01:47:50;100182.88;;;2.73;88.76
62864;BME280;48954;59.950;11.014;2022-11-15T01:50:26;100175.27;;;2.70;88.96
62864;BME280;48954;59.950;11.014;2022-11-15T01:52:57;100176.13;;;2.68;89.05
62864;BME280;48954;59.950;11.014;2022-11-15T01:55:29;100169.00;;;2.64;89.01
62864;BME280;48954;59.950;11.014;2022-11-15T02:01:21;100166.10;;;2.60;89.17
62864;BME280;48954;59.950;11.014;2022-11-15T02:03:59;100167.71;;;2.58;89.13
62864;BME280;48954;59.950;11.014;2022-11-15T02:06:43;100169.79;;;2.57;89.26
62864;BME280;48954;59.950;11.014;2022-11-15T02:09:13;100170.06;;;2.56;89.39
62864;BME280;48954;59.950;11.014;2022-11-15T02:11:41;100159.85;;;2.57;89.43
62864;BME280;48954;59.950;11.014;2022-11-15T02:14:19;100155.02;;;2.56;89.39
62864;BME280;48954;59.950;11.014;2022-11-15T02:22:41;100150.56;;;2.57;89.70
62864;BME280;48954;59.950;11.014;2022-11-15T02:31:14;100153.54;;;2.49;89.45
62864;BME280;48954;59.950;11.014;2022-11-15T02:35:00;100151.60;;;2.46;89.52
62864;BME280;48954;59.950;11.014;2022-11-15T02:37:16;100145.33;;;2.41;89.35
62864;BME280;48954;59.950;11.014;2022-11-15T02:42:47;100137.93;;;2.34;89.52
62864;BME280;48954;59.950;11.014;2022-11-15T02:45:24;100134.42;;;2.30;89.49
62864;BME280;48954;59.950;11.014;2022-11-15T02:47:57;100131.98;;;2.26;89.30
62864;BME280;48954;59.950;11.014;2022-11-15T02:50:29;100131.52;;;2.23;89.43
62864;BME280;48954;59.950;11.014;2022-11-15T02:53:08;100130.20;;;2.19;89.21
62864;BME280;48954;59.950;11.014;2022-11-15T02:55:43;100125.86;;;2.14;89.36
62864;BME280;48954;59.950;11.014;2022-11-15T03:01:22;100126.04;;;2.07;89.25
62864;BME280;48954;59.950;11.014;2022-11-15T03:06:53;100119.20;;;1.99;89.23
62864;BME280;48954;59.950;11.014;2022-11-15T03:15:54;100116.87;;;1.88;89.45
62864;BME280;48954;59.950;11.014;2022-11-15T03:20:49;100120.48;;;1.79;89.43
62864;BME280;48954;59.950;11.014;2022-11-15T03:23:17;100123.94;;;1.79;89.47
62864;BME280;48954;59.950;11.014;2022-11-15T03:25:48;100122.55;;;1.78;89.48
62864;BME280;48954;59.950;11.014;2022-11-15T03:28:56;100123.52;;;1.74;89.30
62864;BME280;48954;59.950;11.014;2022-11-15T03:31:44;100127.42;;;1.69;89.43
62864;BME280;48954;59.950;11.014;2022-11-15T03:34:31;100124.73;;;1.64;89.20
62864;BME280;48954;59.950;11.014;2022-11-15T03:37:12;100126.57;;;1.60;89.29
62864;BME280;48954;59.950;11.014;2022-11-15T03:39:45;100129.41;;;1.57;89.38
62864;BME280;48954;59.950;11.014;2022-11-15T03:45:19;100130.73;;;1.53;89.56
62864;BME280;48954;59.950;11.014;2022-11-15T03:50:42;100130.05;;;1.45;89.42
62864;BME280;48954;59.950;11.014;2022-11-15T03:53:11;100135.52;;;1.42;89.46
62864;BME280;48954;59.950;11.014;2022-11-15T03:55:47;100138.05;;;1.39;89.27
62864;BME280;48954;59.950;11.014;2022-11-15T03:58:18;100136.77;;;1.37;89.48
62864;BME280;48954;59.950;11.014;2022-11-15T04:00:52;100137.16;;;1.36;89.46
62864;BME280;48954;59.950;11.014;2022-11-15T04:03:21;100129.81;;;1.34;89.65
62864;BME280;48954;59.950;11.014;2022-11-15T04:05:49;100127.16;;;1.34;89.78
62864;BME280;48954;59.950;11.014;2022-11-15T04:08:15;100124.39;;;1.34;89.68
62864;BME280;48954;59.950;11.014;2022-11-15T04:10:42;100122.88;;;1.34;89.76
62864;BME280;48954;59.950;11.014;2022-11-15T04:13:19;100118.48;;;1.35;89.86
62864;BME280;48954;59.950;11.014;2022-11-15T04:15:47;100120.02;;;1.36;89.99
62864;BME280;48954;59.950;11.014;2022-11-15T04:18:25;100121.55;;;1.37;89.95
62864;BME280;48954;59.950;11.014;2022-11-15T04:20:54;100123.22;;;1.37;89.99
62864;BME280;48954;59.950;11.014;2022-11-15T04:23:34;100123.00;;;1.38;89.94
62864;BME280;48954;59.950;11.014;2022-11-15T04:26:17;100119.71;;;1.36;90.19
62864;BME280;48954;59.950;11.014;2022-11-15T04:28:46;100123.92;;;1.37;89.79
62864;BME280;48954;59.950;11.014;2022-11-15T04:31:15;100121.85;;;1.38;89.95
62864;BME280;48954;59.950;11.014;2022-11-15T04:33:43;100122.39;;;1.39;89.82
62864;BME280;48954;59.950;11.014;2022-11-15T04:36:13;100120.23;;;1.39;89.78
62864;BME280;48954;59.950;11.014;2022-11-15T04:38:46;100122.00;;;1.40;90.10
62864;BME280;48954;59.950;11.014;2022-11-15T04:41:15;100116.20;;;1.40;89.89
62864;BME280;48954;59.950;11.014;2022-11-15T04:43:46;100114.09;;;1.35;89.90
62864;BME280;48954;59.950;11.014;2022-11-15T04:46:13;100114.16;;;1.37;89.91
62864;BME280;48954;59.950;11.014;2022-11-15T04:48:41;100113.20;;;1.36;89.88
62864;BME280;48954;59.950;11.014;2022-11-15T04:51:25;100117.20;;;1.37;89.91
62864;BME280;48954;59.950;11.014;2022-11-15T04:53:54;100111.84;;;1.36;89.92
62864;BME280;48954;59.950;11.014;2022-11-15T04:56:24;100113.37;;;1.36;89.86
62864;BME280;48954;59.950;11.014;2022-11-15T04:59:25;100113.58;;;1.37;89.98
62864;BME280;48954;59.950;11.014;2022-11-15T05:01:54;100115.85;;;1.37;89.87
62864;BME280;48954;59.950;11.014;2022-11-15T05:04:26;100120.51;;;1.37;89.95
62864;BME280;48954;59.950;11.014;2022-11-15T05:07:22;100120.58;;;1.37;89.72
62864;BME280;48954;59.950;11.014;2022-11-15T05:10:11;100120.06;;;1.34;89.82
62864;BME280;48954;59.950;11.014;2022-11-15T05:12:51;100122.55;;;1.34;89.89
62864;BME280;48954;59.950;11.014;2022-11-15T05:15:20;100128.86;;;1.36;90.07
62864;BME280;48954;59.950;11.014;2022-11-15T05:17:47;100125.20;;;1.35;89.92
62864;BME280;48954;59.950;11.014;2022-11-15T05:20:17;100127.21;;;1.34;89.83
62864;BME280;48954;59.950;11.014;2022-11-15T05:22:46;100133.33;;;1.30;89.58
62864;BME280;48954;59.950;11.014;2022-11-15T05:25:18;100134.88;;;1.28;89.76
62864;BME280;48954;59.950;11.014;2022-11-15T05:28:12;100133.11;;;1.27;90.01
62864;BME280;48954;59.950;11.014;2022-11-15T05:30:47;100130.24;;;1.25;89.83
62864;BME280;48954;59.950;11.014;2022-11-15T05:33:17;100129.56;;;1.23;89.73
62864;BME280;48954;59.950;11.014;2022-11-15T05:36:15;100136.12;;;1.23;90.03
62864;BME280;48954;59.950;11.014;2022-11-15T05:38:55;100137.87;;;1.21;89.91
62864;BME280;48954;59.950;11.014;2022-11-15T05:41:30;100142.38;;;1.21;89.80
62864;BME280;48954;59.950;11.014;2022-11-15T05:44:00;100143.20;;;1.20;89.93
62864;BME280;48954;59.950;11.014;2022-11-15T05:46:30;100150.45;;;1.20;89.83
62864;BME280;48954;59.950;11.014;2022-11-15T05:49:28;100149.23;;;1.19;89.93
62864;BME280;48954;59.950;11.014;2022-11-15T05:51:59;100155.29;;;1.18;89.94
62864;BME280;48954;59.950;11.014;2022-11-15T05:54:33;100157.36;;;1.18;90.03
62864;BME280;48954;59.950;11.014;2022-11-15T05:57:06;100158.77;;;1.18;89.97
62864;BME280;48954;59.950;11.014;2022-11-15T05:59:43;100159.30;;;1.18;89.96
62864;BME280;48954;59.950;11.014;2022-11-15T06:02:14;100163.36;;;1.18;89.89
62864;BME280;48954;59.950;11.014;2022-11-15T06:04:42;100172.09;;;1.19;89.96
62864;BME280;48954;59.950;11.014;2022-11-15T06:07:09;100175.10;;;1.20;90.01
62864;BME280;48954;59.950;11.014;2022-11-15T06:09:36;100184.30;;;1.21;90.01
62864;BME280;48954;59.950;11.014;2022-11-15T06:12:05;100180.38;;;1.19;89.94
62864;BME280;48954;59.950;11.014;2022-11-15T06:14:37;100178.04;;;1.20;89.70
62864;BME280;48954;59.950;11.014;2022-11-15T06:17:07;100178.30;;;1.20;89.97
62864;BME280;48954;59.950;11.014;2022-11-15T06:19:33;100177.77;;;1.20;89.74
62864;BME280;48954;59.950;11.014;2022-11-15T06:22:00;100185.48;;;1.18;89.90
62864;BME280;48954;59.950;11.014;2022-11-15T06:24:27;100189.01;;;1.17;90.01
62864;BME280;48954;59.950;11.014;2022-11-15T06:26:55;100194.59;;;1.18;90.11
62864;BME280;48954;59.950;11.014;2022-11-15T06:29:26;100196.82;;;1.17;89.92
62864;BME280;48954;59.950;11.014;2022-11-15T06:31:54;100203.04;;;1.18;90.08
62864;BME280;48954;59.950;11.014;2022-11-15T06:34:37;100201.45;;;1.17;89.94
62864;BME280;48954;59.950;11.014;2022-11-15T06:37:06;100207.36;;;1.16;90.12
62864;BME280;48954;59.950;11.014;2022-11-15T06:39:34;100205.14;;;1.16;90.16
62864;BME280;48954;59.950;11.014;2022-11-15T06:42:17;100209.79;;;1.17;90.01
62864;BME280;48954;59.950;11.014;2022-11-15T06:44:47;100200.02;;;1.12;90.07
62864;BME280;48954;59.950;11.014;2022-11-15T06:47:27;100205.55;;;1.17;90.24
62864;BME280;48954;59.950;11.014;2022-11-15T06:50:09;100206.66;;;1.18;90.11
62864;BME280;48954;59.950;11.014;2022-11-15T06:52:49;100210.61;;;1.19;90.04
62864;BME280;48954;59.950;11.014;2022-11-15T06:55:24;100219.60;;;1.20;90.30
62864;BME280;48954;59.950;11.014;2022-11-15T06:58:00;100222.48;;;1.20;90.35
62864;BME280;48954;59.950;11.014;2022-11-15T07:00:29;100226.09;;;1.22;90.46
62864;BME280;48954;59.950;11.014;2022-11-15T07:02:59;100226.80;;;1.27;90.17
62864;BME280;48954;59.950;11.014;2022-11-15T07:05:29;100227.38;;;1.29;90.37
62864;BME280;48954;59.950;11.014;2022-11-15T07:08:13;100232.59;;;1.32;90.53
62864;BME280;48954;59.950;11.014;2022-11-15T07:10:41;100240.14;;;1.37;90.55
62864;BME280;48954;59.950;11.014;2022-11-15T07:13:13;100239.63;;;1.41;90.69
62864;BME280;48954;59.950;11.014;2022-11-15T07:15:43;100244.84;;;1.43;90.61
62864;BME280;48954;59.950;11.014;2022-11-15T07:18:11;100250.43;;;1.48;90.57
62864;BME280;48954;59.950;11.014;2022-11-15T07:20:51;100251.48;;;1.52;90.48
62864;BME280;48954;59.950;11.014;2022-11-15T07:23:21;100253.66;;;1.56;90.82
62864;BME280;48954;59.950;11.014;2022-11-15T07:25:50;100251.77;;;1.59;90.79
62864;BME280;48954;59.950;11.014;2022-11-15T07:28:45;100259.21;;;1.64;90.67
62864;BME280;48954;59.950;11.014;2022-11-15T07:31:12;100262.05;;;1.68;90.65
62864;BME280;48954;59.950;11.014;2022-11-15T07:33:42;100268.39;;;1.72;90.77
62864;BME280;48954;59.950;11.014;2022-11-15T07:36:09;100273.73;;;1.76;90.70
62864;BME280;48954;59.950;11.014;2022-11-15T07:38:40;100276.41;;;1.80;90.65
62864;BME280;48954;59.950;11.014;2022-11-15T07:41:09;100279.05;;;1.84;90.72
62864;BME280;48954;59.950;11.014;2022-11-15T07:43:53;100280.04;;;1.89;90.57
62864;BME280;48954;59.950;11.014;2022-11-15T07:46:29;100285.11;;;1.92;90.84
62864;BME280;48954;59.950;11.014;2022-11-15T07:49:00;100287.39;;;1.95;90.53
62864;BME280;48954;59.950;11.014;2022-11-15T07:51:28;100287.56;;;1.98;90.71
62864;BME280;48954;59.950;11.014;2022-11-15T07:54:06;100291.60;;;2.02;90.61
62864;BME280;48954;59.950;11.014;2022-11-15T07:56:54;100290.91;;;2.05;90.65
62864;BME280;48954;59.950;11.014;2022-11-15T07:59:24;100288.76;;;2.08;90.50
62864;BME280;48954;59.950;11.014;2022-11-15T08:01:52;100295.45;;;2.11;90.42
62864;BME280;48954;59.950;11.014;2022-11-15T08:04:33;100298.02;;;2.13;90.54
62864;BME280;48954;59.950;11.014;2022-11-15T08:07:34;100304.29;;;2.17;90.51
62864;BME280;48954;59.950;11.014;2022-11-15T08:10:22;100296.39;;;2.20;90.55
62864;BME280;48954;59.950;11.014;2022-11-15T08:13:19;100299.79;;;2.23;90.68
62864;BME280;48954;59.950;11.014;2022-11-15T08:16:20;100298.64;;;2.25;90.30
62864;BME280;48954;59.950;11.014;2022-11-15T08:19:07;100302.58;;;2.27;90.42
62864;BME280;48954;59.950;11.014;2022-11-15T08:21:47;100302.94;;;2.29;90.33
62864;BME280;48954;59.950;11.014;2022-11-15T08:24:19;100305.95;;;2.31;90.18
62864;BME280;48954;59.950;11.014;2022-11-15T08:27:04;100307.24;;;2.33;90.45
62864;BME280;48954;59.950;11.014;2022-11-15T08:29:33;100309.05;;;2.35;90.47
62864;BME280;48954;59.950;11.014;2022-11-15T08:32:01;100308.69;;;2.36;90.40
62864;BME280;48954;59.950;11.014;2022-11-15T08:34:32;100310.51;;;2.39;90.42
62864;BME280;48954;59.950;11.014;2022-11-15T08:37:04;100306.52;;;2.41;90.45
62864;BME280;48954;59.950;11.014;2022-11-15T08:40:00;100307.48;;;2.43;90.38
62864;BME280;48954;59.950;11.014;2022-11-15T08:42:29;100311.54;;;2.44;90.18
62864;BME280;48954;59.950;11.014;2022-11-15T08:45:10;100313.05;;;2.46;90.34
62864;BME280;48954;59.950;11.014;2022-11-15T08:47:40;100310.54;;;2.48;90.46
62864;BME280;48954;59.950;11.014;2022-11-15T08:50:08;100311.56;;;2.49;90.35
62864;BME280;48954;59.950;11.014;2022-11-15T08:52:40;100312.02;;;2.52;90.51
62864;BME280;48954;59.950;11.014;2022-11-15T08:55:07;100311.58;;;2.54;90.48
62864;BME280;48954;59.950;11.014;2022-11-15T08:57:38;100318.33;;;2.56;90.31
62864;BME280;48954;59.950;11.014;2022-11-15T09:00:12;100322.81;;;2.58;90.14
62864;BME280;48954;59.950;11.014;2022-11-15T09:02:42;100322.06;;;2.60;90.41
62864;BME280;48954;59.950;11.014;2022-11-15T09:05:47;100321.56;;;2.65;90.27
62864;BME280;48954;59.950;11.014;2022-11-15T09:08:15;100317.16;;;2.65;89.91
62864;BME280;48954;59.950;11.014;2022-11-15T09:10:56;100318.45;;;2.67;90.12
62864;BME280;48954;59.950;11.014;2022-11-15T09:13:30;100325.25;;;2.70;90.31
62864;BME280;48954;59.950;11.014;2022-11-15T09:15:59;100329.82;;;2.72;90.56
62864;BME280;48954;59.950;11.014;2022-11-15T09:18:29;100331.46;;;2.75;90.41
62864;BME280;48954;59.950;11.014;2022-11-15T09:21:01;100335.61;;;2.78;90.30
62864;BME280;48954;59.950;11.014;2022-11-15T09:23:29;100335.68;;;2.81;90.37
62864;BME280;48954;59.950;11.014;2022-11-15T09:26:00;100329.77;;;2.81;90.66
62864;BME280;48954;59.950;11.014;2022-11-15T09:28:31;100332.51;;;2.86;90.33
62864;BME280;48954;59.950;11.014;2022-11-15T09:31:00;100336.13;;;2.86;90.34
62864;BME280;48954;59.950;11.014;2022-11-15T09:33:43;100337.98;;;2.87;90.53
62864;BME280;48954;59.950;11.014;2022-11-15T09:36:13;100341.52;;;2.90;90.45
62864;BME280;48954;59.950;11.014;2022-11-15T09:38:54;100338.49;;;2.90;90.40
62864;BME280;48954;59.950;11.014;2022-11-15T09:41:57;100343.02;;;2.93;90.49
62864;BME280;48954;59.950;11.014;2022-11-15T09:45:06;100340.29;;;2.94;90.41
62864;BME280;48954;59.950;11.014;2022-11-15T09:48:00;100341.02;;;2.95;90.43
62864;BME280;48954;59.950;11.014;2022-11-15T09:50:50;100342.80;;;2.97;90.68
62864;BME280;48954;59.950;11.014;2022-11-15T09:53:42;100345.10;;;2.99;90.58
62864;BME280;48954;59.950;11.014;2022-11-15T09:56:21;100345.87;;;3.01;90.80
62864;BME280;48954;59.950;11.014;2022-11-15T10:04:26;100356.29;;;3.07;90.63
62864;BME280;48954;59.950;11.014;2022-11-15T10:07:37;100355.39;;;3.09;90.53
62864;BME280;48954;59.950;11.014;2022-11-15T10:10:04;100359.16;;;3.11;90.59
62864;BME280;48954;59.950;11.014;2022-11-15T10:12:51;100358.95;;;3.13;90.75
62864;BME280;48954;59.950;11.014;2022-11-15T10:15:19;100365.66;;;3.15;90.68
62864;BME280;48954;59.950;11.014;2022-11-15T10:20:39;100370.06;;;3.19;90.49
62864;BME280;48954;59.950;11.014;2022-11-15T10:23:12;100372.05;;;3.21;90.41
62864;BME280;48954;59.950;11.014;2022-11-15T10:25:40;100370.29;;;3.23;90.65
62864;BME280;48954;59.950;11.014;2022-11-15T10:28:21;100374.98;;;3.25;90.52
62864;BME280;48954;59.950;11.014;2022-11-15T10:30:53;100383.53;;;3.26;90.53
62864;BME280;48954;59.950;11.014;2022-11-15T10:41:36;100383.38;;;3.30;90.35
62864;BME280;48954;59.950;11.014;2022-11-15T10:46:40;100391.45;;;3.29;90.13
62864;BME280;48954;59.950;11.014;2022-11-15T10:49:23;100396.02;;;3.29;90.39
62864;BME280;48954;59.950;11.014;2022-11-15T10:51:57;100393.30;;;3.29;90.06
62864;BME280;48954;59.950;11.014;2022-11-15T10:57:16;100389.49;;;3.29;90.09
62864;BME280;48954;59.950;11.014;2022-11-15T10:59:56;100387.36;;;3.29;90.21
62864;BME280;48954;59.950;11.014;2022-11-15T11:02:32;100386.98;;;3.29;90.00
62864;BME280;48954;59.950;11.014;2022-11-15T11:07:59;100385.91;;;3.32;89.80
62864;BME280;48954;59.950;11.014;2022-11-15T11:10:27;100390.79;;;3.33;89.65
62864;BME280;48954;59.950;11.014;2022-11-15T11:13:15;100391.42;;;3.34;89.56
62864;BME280;48954;59.950;11.014;2022-11-15T11:16:41;100392.36;;;3.33;89.56
62864;BME280;48954;59.950;11.014;2022-11-15T11:22:02;100399.10;;;3.40;89.50
62864;BME280;48954;59.950;11.014;2022-11-15T11:24:37;100403.98;;;3.41;89.17
62864;BME280;48954;59.950;11.014;2022-11-15T11:27:18;100407.75;;;3.43;89.28
62864;BME280;48954;59.950;11.014;2022-11-15T11:33:03;100416.09;;;3.46;89.23
62864;BME280;48954;59.950;11.014;2022-11-15T11:35:44;100419.94;;;3.47;89.15
62864;BME280;48954;59.950;11.014;2022-11-15T11:47:24;100418.41;;;3.47;88.66
62864;BME280;48954;59.950;11.014;2022-11-15T11:50:30;100413.68;;;3.48;88.61
62864;BME280;48954;59.950;11.014;2022-11-15T11:53:23;100409.73;;;3.46;88.52
62864;BME280;48954;59.950;11.014;2022-11-15T11:55:58;100411.95;;;3.47;88.25
62864;BME280;48954;59.950;11.014;2022-11-15T11:58:41;100412.49;;;3.46;88.17
62864;BME280;48954;59.950;11.014;2022-11-15T12:01:30;100407.12;;;3.46;88.08
62864;BME280;48954;59.950;11.014;2022-11-15T12:07:23;100414.11;;;3.47;88.32
62864;BME280;48954;59.950;11.014;2022-11-15T12:10:22;100409.00;;;3.50;87.94
62864;BME280;48954;59.950;11.014;2022-11-15T12:13:11;100404.34;;;3.51;87.97
62864;BME280;48954;59.950;11.014;2022-11-15T12:15:51;100407.45;;;3.51;87.81
62864;BME280;48954;59.950;11.014;2022-11-15T12:18:34;100412.70;;;3.52;87.58
62864;BME280;48954;59.950;11.014;2022-11-15T12:23:54;100420.27;;;3.53;87.36
62864;BME280;48954;59.950;11.014;2022-11-15T12:26:28;100420.08;;;3.54;87.54
62864;BME280;48954;59.950;11.014;2022-11-15T12:29:11;100415.73;;;3.54;87.12
62864;BME280;48954;59.950;11.014;2022-11-15T12:31:44;100412.30;;;3.55;87.07
62864;BME280;48954;59.950;11.014;2022-11-15T12:34:36;100411.96;;;3.55;86.95
62864;BME280;48954;59.950;11.014;2022-11-15T12:40:32;100421.46;;;3.57;86.61
62864;BME280;48954;59.950;11.014;2022-11-15T12:45:51;100413.10;;;3.56;86.25
62864;BME280;48954;59.950;11.014;2022-11-15T12:48:53;100412.48;;;3.56;86.23
62864;BME280;48954;59.950;11.014;2022-11-15T12:59:53;100409.27;;;3.57;85.54
62864;BME280;48954;59.950;11.014;2022-11-15T13:02:25;100412.32;;;3.57;85.30
62864;BME280;48954;59.950;11.014;2022-11-15T13:10:30;100414.11;;;3.57;85.31
62864;BME280;48954;59.950;11.014;2022-11-15T13:13:09;100414.41;;;3.56;85.41
62864;BME280;48954;59.950;11.014;2022-11-15T13:18:44;100417.92;;;3.57;85.22
62864;BME280;48954;59.950;11.014;2022-11-15T13:21:24;100418.56;;;3.57;85.16
62864;BME280;48954;59.950;11.014;2022-11-15T13:23:54;100413.66;;;3.58;85.17
62864;BME280;48954;59.950;11.014;2022-11-15T13:26:26;100410.95;;;3.58;84.99
62864;BME280;48954;59.950;11.014;2022-11-15T13:29:18;100416.05;;;3.59;85.16
62864;BME280;48954;59.950;11.014;2022-11-15T13:32:00;100409.63;;;3.59;85.06
62864;BME280;48954;59.950;11.014;2022-11-15T13:34:45;100414.17;;;3.61;85.25
62864;BME280;48954;59.950;11.014;2022-11-15T13:37:29;100410.75;;;3.61;85.02
62864;BME280;48954;59.950;11.014;2022-11-15T13:40:29;100412.34;;;3.60;84.96
62864;BME280;48954;59.950;11.014;2022-11-15T13:43:36;100407.13;;;3.59;84.64
62864;BME280;48954;59.950;11.014;2022-11-15T13:46:26;100415.52;;;3.57;84.73
62864;BME280;48954;59.950;11.014;2022-11-15T13:49:13;100407.33;;;3.56;84.59
62864;BME280;48954;59.950;11.014;2022-11-15T13:51:53;100404.56;;;3.55;84.23
62864;BME280;48954;59.950;11.014;2022-11-15T14:00:40;100411.80;;;3.55;84.04
62864;BME280;48954;59.950;11.014;2022-11-15T14:03:21;100417.27;;;3.56;84.21
62864;BME280;48954;59.950;11.014;2022-11-15T14:06:10;100414.11;;;3.53;83.85
62864;BME280;48954;59.950;11.014;2022-11-15T14:08:42;100413.23;;;3.53;83.86
62864;BME280;48954;59.950;11.014;2022-11-15T14:11:33;100412.05;;;3.50;83.86
62864;BME280;48954;59.950;11.014;2022-11-15T14:14:14;100410.96;;;3.50;83.61
62864;BME280;48954;59.950;11.014;2022-11-15T14:17:00;100410.11;;;3.49;83.45
62864;BME280;48954;59.950;11.014;2022-11-15T14:19:51;100408.04;;;3.46;83.53
62864;BME280;48954;59.950;11.014;2022-11-15T14:22:37;100410.58;;;3.48;83.47
62864;BME280;48954;59.950;11.014;2022-11-15T14:25:37;100413.39;;;3.48;83.31
62864;BME280;48954;59.950;11.014;2022-11-15T14:28:33;100416.13;;;3.47;83.23
62864;BME280;48954;59.950;11.014;2022-11-15T14:31:16;100414.36;;;3.45;83.26
62864;BME280;48954;59.950;11.014;2022-11-15T14:33:50;100409.96;;;3.44;83.31
62864;BME280;48954;59.950;11.014;2022-11-15T14:36:30;100394.52;;;3.33;83.29
62864;BME280;48954;59.950;11.014;2022-11-15T14:39:12;100408.52;;;3.43;83.37
62864;BME280;48954;59.950;11.014;2022-11-15T14:42:32;100408.05;;;3.41;83.21
62864;BME280;48954;59.950;11.014;2022-11-15T14:45:32;100400.02;;;3.40;83.04
62864;BME280;48954;59.950;11.014;2022-11-15T14:48:26;100400.70;;;3.38;83.22
62864;BME280;48954;59.950;11.014;2022-11-15T14:51:16;100404.10;;;3.37;83.00
62864;BME280;48954;59.950;11.014;2022-11-15T14:53:57;100408.59;;;3.36;83.03
62864;BME280;48954;59.950;11.014;2022-11-15T14:56:37;100418.35;;;3.34;82.82
62864;BME280;48954;59.950;11.014;2022-11-15T14:59:33;100406.75;;;3.27;82.89
62864;BME280;48954;59.950;11.014;2022-11-15T15:02:28;100409.75;;;3.31;82.77
62864;BME280;48954;59.950;11.014;2022-11-15T15:05:40;100408.72;;;3.26;82.54
62864;BME280;48954;59.950;11.014;2022-11-15T15:08:37;100423.38;;;3.28;82.68
62864;BME280;48954;59.950;11.014;2022-11-15T15:11:44;100423.27;;;3.27;82.54
62864;BME280;48954;59.950;11.014;2022-11-15T15:14:47;100416.55;;;3.25;82.11
62864;BME280;48954;59.950;11.014;2022-11-15T15:17:54;100407.57;;;3.20;81.96
62864;BME280;48954;59.950;11.014;2022-11-15T15:20:49;100409.79;;;3.16;81.72
62864;BME280;48954;59.950;11.014;2022-11-15T15:23:33;100407.21;;;3.14;81.76
62864;BME280;48954;59.950;11.014;2022-11-15T15:26:01;100404.95;;;3.12;81.57
62864;BME280;48954;59.950;11.014;2022-11-15T15:28:33;100396.50;;;3.07;81.44
62864;BME280;48954;59.950;11.014;2022-11-15T15:31:14;100406.59;;;3.09;81.12
62864;BME280;48954;59.950;11.014;2022-11-15T15:33:57;100403.79;;;3.03;81.58
62864;BME280;48954;59.950;11.014;2022-11-15T15:36:39;100413.39;;;3.04;81.26
62864;BME280;48954;59.950;11.014;2022-11-15T15:39:26;100411.36;;;3.00;81.03